sensor_id;sensor_type;location;lat;lon;timestamp;temperature;humidity
12655;DHT22;6392;44.644;11.448;2023-02-26T00:00:29;13.50;99.90
12655;DHT22;6392;44.644;11.448;2023-02-26T00:02:56;13.50;99.90
12655;DHT22;6392;44.644;11.448;2023-02-26T00:05:25;13.50;99.90
12655;DHT22;6392;44.644;11.448;2023-02-26T00:07:52;13.50;99.90
12655;DHT22;6392;44.644;11.448;2023-02-26T00:10:19;13.50;99.90
12655;DHT22;6392;44.644;11.448;2023-02-26T00:12:47;13.50;99.90
12655;DHT22;6392;44.644;11.448;2023-02-26T00:15:14;13.50;99.90
12655;DHT22;6392;44.644;11.448;2023-02-26T00:17:47;13.60;99.90
12655;DHT22;6392;44.644;11.448;2023-02-26T00:20:15;13.60;99.90
12655;DHT22;6392;44.644;11.448;2023-02-26T00:22:44;13.60;99.90
12655;DHT22;6392;44.644;11.448;2023-02-26T00:25:12;13.50;99.90
12655;DHT22;6392;44.644;11.448;2023-02-26T00:27:39;13.50;99.90
12655;DHT22;6392;44.644;11.448;2023-02-26T00:30:08;13.50;99.90
12655;DHT22;6392;44.644;11.448;2023-02-26T00:32:36;13.50;99.90
12655;DHT22;6392;44.644;11.448;2023-02-26T00:35:05;13.60;99.90
12655;DHT22;6392;44.644;11.448;2023-02-26T00:37:54;13.60;99.90
12655;DHT22;6392;44.644;11.448;2023-02-26T00:40:27;13.60;99.90
12655;DHT22;6392;44.644;11.448;2023-02-26T00:42:55;13.60;99.90
12655;DHT22;6392;44.644;11.448;2023-02-26T00:45:23;13.60;99.90
12655;DHT22;6392;44.644;11.448;2023-02-26T00:47:53;13.60;99.90
12655;DHT22;6392;44.644;11.448;2023-02-26T00:50:23;13.60;99.90
12655;DHT22;6392;44.644;11.448;2023-02-26T00:53:02;13.60;99.90
12655;DHT22;6392;44.644;11.448;2023-02-26T00:55:30;13.60;99.90
12655;DHT22;6392;44.644;11.448;2023-02-26T00:57:57;13.60;99.90
12655;DHT22;6392;44.644;11.448;2023-02-26T01:00:24;13.50;99.90
12655;DHT22;6392;44.644;11.448;2023-02-26T01:02:52;13.50;99.90
12655;DHT22;6392;44.644;11.448;2023-02-26T01:05:20;13.50;99.90
12655;DHT22;6392;44.644;11.448;2023-02-26T01:07:53;13.50;99.90
12655;DHT22;6392;44.644;11.448;2023-02-26T01:10:25;13.50;99.90
12655;DHT22;6392;44.644;11.448;2023-02-26T01:12:53;13.50;99.90
12655;DHT22;6392;44.644;11.448;2023-02-26T01:15:21;13.50;99.90
12655;DHT22;6392;44.644;11.448;2023-02-26T01:17:52;13.50;99.90
12655;DHT22;6392;44.644;11.448;2023-02-26T01:20:22;13.50;99.90
12655;DHT22;6392;44.644;11.448;2023-02-26T01:22:53;13.60;99.90
12655;DHT22;6392;44.644;11.448;2023-02-26T01:25:26;13.60;99.90
12655;DHT22;6392;44.644;11.448;2023-02-26T01:27:54;13.60;99.90
12655;DHT22;6392;44.644;11.448;2023-02-26T01:30:25;13.60;99.90
12655;DHT22;6392;44.644;11.448;2023-02-26T01:32:57;13.50;99.90
12655;DHT22;6392;44.644;11.448;2023-02-26T01:35:36;13.60;99.90
12655;DHT22;6392;44.644;11.448;2023-02-26T01:38:14;13.60;99.90
12655;DHT22;6392;44.644;11.448;2023-02-26T01:41:11;13.60;99.90
12655;DHT22;6392;44.644;11.448;2023-02-26T01:43:45;13.60;99.90
12655;DHT22;6392;44.644;11.448;2023-02-26T01:46:21;13.60;99.90
12655;DHT22;6392;44.644;11.448;2023-02-26T01:48:52;13.60;99.90
12655;DHT22;6392;44.644;11.448;2023-02-26T01:51:41;13.50;99.90
12655;DHT22;6392;44.644;11.448;2023-02-26T01:54:08;13.50;99.90
12655;DHT22;6392;44.644;11.448;2023-02-26T01:56:37;13.50;99.90
12655;DHT22;6392;44.644;11.448;2023-02-26T01:59:05;13.50;99.90
12655;DHT22;6392;44.644;11.448;2023-02-26T02:01:35;13.50;99.90
12655;DHT22;6392;44.644;11.448;2023-02-26T02:04:04;13.50;99.90
12655;DHT22;6392;44.644;11.448;2023-02-26T02:06:32;13.40;99.90
12655;DHT22;6392;44.644;11.448;2023-02-26T02:08:59;13.40;99.90
12655;DHT22;6392;44.644;11.448;2023-02-26T02:11:27;13.40;99.90
12655;DHT22;6392;44.644;11.448;2023-02-26T02:14:04;13.40;99.90
12655;DHT22;6392;44.644;11.448;2023-02-26T02:16:40;13.30;99.90
12655;DHT22;6392;44.644;11.448;2023-02-26T02:19:32;13.30;99.90
12655;DHT22;6392;44.644;11.448;2023-02-26T02:22:24;13.30;99.90
12655;DHT22;6392;44.644;11.448;2023-02-26T02:25:07;13.30;99.90
12655;DHT22;6392;44.644;11.448;2023-02-26T02:27:42;13.20;99.90
12655;DHT22;6392;44.644;11.448;2023-02-26T02:30:36;13.20;99.90
12655;DHT22;6392;44.644;11.448;2023-02-26T02:33:10;13.20;99.90
12655;DHT22;6392;44.644;11.448;2023-02-26T02:35:40;13.20;99.90
12655;DHT22;6392;44.644;11.448;2023-02-26T02:38:11;13.20;99.90
12655;DHT22;6392;44.644;11.448;2023-02-26T02:40:42;13.20;99.90
12655;DHT22;6392;44.644;11.448;2023-02-26T02:43:14;13.20;99.90
12655;DHT22;6392;44.644;11.448;2023-02-26T02:45:44;13.20;99.90
12655;DHT22;6392;44.644;11.448;2023-02-26T02:48:19;13.20;99.90
12655;DHT22;6392;44.644;11.448;2023-02-26T02:50:50;13.20;99.90
12655;DHT22;6392;44.644;11.448;2023-02-26T02:53:22;13.10;99.90
12655;DHT22;6392;44.644;11.448;2023-02-26T02:55:53;13.10;99.90
12655;DHT22;6392;44.644;11.448;2023-02-26T02:58:25;13.10;99.90
12655;DHT22;6392;44.644;11.448;2023-02-26T03:00:59;13.00;99.90
12655;DHT22;6392;44.644;11.448;2023-02-26T03:03:33;13.00;99.90
12655;DHT22;6392;44.644;11.448;2023-02-26T03:06:01;12.90;99.90
12655;DHT22;6392;44.644;11.448;2023-02-26T03:08:33;12.90;99.90
12655;DHT22;6392;44.644;11.448;2023-02-26T03:11:00;13.20;99.90
12655;DHT22;6392;44.644;11.448;2023-02-26T03:13:27;13.70;99.90
12655;DHT22;6392;44.644;11.448;2023-02-26T03:16:17;13.90;99.90
12655;DHT22;6392;44.644;11.448;2023-02-26T03:18:52;14.20;99.90
12655;DHT22;6392;44.644;11.448;2023-02-26T03:21:41;14.40;99.90
12655;DHT22;6392;44.644;11.448;2023-02-26T03:24:15;14.50;99.90
12655;DHT22;6392;44.644;11.448;2023-02-26T03:26:46;14.30;99.90
12655;DHT22;6392;44.644;11.448;2023-02-26T03:29:18;14.50;99.90
12655;DHT22;6392;44.644;11.448;2023-02-26T03:31:51;14.60;99.90
12655;DHT22;6392;44.644;11.448;2023-02-26T03:34:24;14.70;99.90
12655;DHT22;6392;44.644;11.448;2023-02-26T03:36:56;14.80;99.90
12655;DHT22;6392;44.644;11.448;2023-02-26T03:39:26;14.90;99.90
12655;DHT22;6392;44.644;11.448;2023-02-26T03:41:58;15.00;99.90
12655;DHT22;6392;44.644;11.448;2023-02-26T03:44:30;15.10;99.90
12655;DHT22;6392;44.644;11.448;2023-02-26T03:47:00;15.20;99.90
12655;DHT22;6392;44.644;11.448;2023-02-26T03:49:32;15.50;99.90
12655;DHT22;6392;44.644;11.448;2023-02-26T03:52:02;15.50;99.90
12655;DHT22;6392;44.644;11.448;2023-02-26T03:54:32;15.70;99.90
12655;DHT22;6392;44.644;11.448;2023-02-26T03:57:00;15.90;99.90
12655;DHT22;6392;44.644;11.448;2023-02-26T03:59:27;16.00;99.90
12655;DHT22;6392;44.644;11.448;2023-02-26T04:01:58;16.10;99.90
12655;DHT22;6392;44.644;11.448;2023-02-26T04:04:28;16.10;99.90
12655;DHT22;6392;44.644;11.448;2023-02-26T04:06:58;16.10;99.90
12655;DHT22;6392;44.644;11.448;2023-02-26T04:09:26;16.10;99.90
12655;DHT22;6392;44.644;11.448;2023-02-26T04:11:54;15.90;99.90
12655;DHT22;6392;44.644;11.448;2023-02-26T04:14:22;15.80;99.90
12655;DHT22;6392;44.644;11.448;2023-02-26T04:16:49;15.70;99.90
12655;DHT22;6392;44.644;11.448;2023-02-26T04:19:16;15.60;99.90
12655;DHT22;6392;44.644;11.448;2023-02-26T04:21:43;15.50;99.90
12655;DHT22;6392;44.644;11.448;2023-02-26T04:24:12;15.00;99.90
12655;DHT22;6392;44.644;11.448;2023-02-26T04:26:39;14.60;99.90
12655;DHT22;6392;44.644;11.448;2023-02-26T04:29:06;14.30;99.90
12655;DHT22;6392;44.644;11.448;2023-02-26T04:31:33;14.20;99.90
12655;DHT22;6392;44.644;11.448;2023-02-26T04:34:00;14.30;99.90
12655;DHT22;6392;44.644;11.448;2023-02-26T04:36:27;14.60;99.90
12655;DHT22;6392;44.644;11.448;2023-02-26T04:38:54;14.80;99.90
12655;DHT22;6392;44.644;11.448;2023-02-26T04:41:23;14.50;99.90
12655;DHT22;6392;44.644;11.448;2023-02-26T04:43:50;14.30;99.90
12655;DHT22;6392;44.644;11.448;2023-02-26T04:46:17;14.40;99.90
12655;DHT22;6392;44.644;11.448;2023-02-26T04:48:44;14.40;99.90
12655;DHT22;6392;44.644;11.448;2023-02-26T04:51:11;14.50;99.90
12655;DHT22;6392;44.644;11.448;2023-02-26T04:53:38;14.60;99.90
12655;DHT22;6392;44.644;11.448;2023-02-26T04:56:05;14.80;99.90
12655;DHT22;6392;44.644;11.448;2023-02-26T04:58:33;15.00;99.90
12655;DHT22;6392;44.644;11.448;2023-02-26T05:01:00;15.20;99.90
12655;DHT22;6392;44.644;11.448;2023-02-26T05:03:28;15.20;99.90
12655;DHT22;6392;44.644;11.448;2023-02-26T05:05:54;15.10;99.90
12655;DHT22;6392;44.644;11.448;2023-02-26T05:08:22;15.10;99.90
12655;DHT22;6392;44.644;11.448;2023-02-26T05:10:50;15.20;99.90
12655;DHT22;6392;44.644;11.448;2023-02-26T05:13:17;15.00;99.90
12655;DHT22;6392;44.644;11.448;2023-02-26T05:15:45;14.50;99.90
12655;DHT22;6392;44.644;11.448;2023-02-26T05:18:12;14.10;99.90
12655;DHT22;6392;44.644;11.448;2023-02-26T05:20:39;14.20;99.90
12655;DHT22;6392;44.644;11.448;2023-02-26T05:23:07;14.20;99.90
12655;DHT22;6392;44.644;11.448;2023-02-26T05:25:34;14.40;99.90
12655;DHT22;6392;44.644;11.448;2023-02-26T05:28:01;14.20;99.90
12655;DHT22;6392;44.644;11.448;2023-02-26T05:30:27;14.20;99.90
12655;DHT22;6392;44.644;11.448;2023-02-26T05:32:56;13.90;99.90
12655;DHT22;6392;44.644;11.448;2023-02-26T05:35:23;13.80;99.90
12655;DHT22;6392;44.644;11.448;2023-02-26T05:37:50;13.60;99.90
12655;DHT22;6392;44.644;11.448;2023-02-26T05:40:17;13.00;99.90
12655;DHT22;6392;44.644;11.448;2023-02-26T05:42:44;12.50;99.90
12655;DHT22;6392;44.644;11.448;2023-02-26T05:45:11;12.20;99.90
12655;DHT22;6392;44.644;11.448;2023-02-26T05:47:38;12.00;99.90
12655;DHT22;6392;44.644;11.448;2023-02-26T05:50:07;11.70;99.90
12655;DHT22;6392;44.644;11.448;2023-02-26T05:52:35;11.40;99.90
12655;DHT22;6392;44.644;11.448;2023-02-26T05:55:02;11.10;99.90
12655;DHT22;6392;44.644;11.448;2023-02-26T05:57:29;10.90;99.90
12655;DHT22;6392;44.644;11.448;2023-02-26T05:59:56;10.70;99.90
12655;DHT22;6392;44.644;11.448;2023-02-26T06:02:23;10.60;99.90
12655;DHT22;6392;44.644;11.448;2023-02-26T06:04:50;10.60;99.90
12655;DHT22;6392;44.644;11.448;2023-02-26T06:07:19;10.50;99.90
12655;DHT22;6392;44.644;11.448;2023-02-26T06:09:46;10.50;99.90
12655;DHT22;6392;44.644;11.448;2023-02-26T06:12:12;10.70;99.90
12655;DHT22;6392;44.644;11.448;2023-02-26T06:14:39;10.70;99.90
12655;DHT22;6392;44.644;11.448;2023-02-26T06:17:07;10.80;99.90
12655;DHT22;6392;44.644;11.448;2023-02-26T06:19:34;11.00;99.90
12655;DHT22;6392;44.644;11.448;2023-02-26T06:22:01;10.80;99.90
12655;DHT22;6392;44.644;11.448;2023-02-26T06:24:29;10.90;99.90
12655;DHT22;6392;44.644;11.448;2023-02-26T06:26:56;10.80;99.90
12655;DHT22;6392;44.644;11.448;2023-02-26T06:29:23;11.10;99.90
12655;DHT22;6392;44.644;11.448;2023-02-26T06:31:50;11.00;99.90
12655;DHT22;6392;44.644;11.448;2023-02-26T06:34:17;10.70;99.90
12655;DHT22;6392;44.644;11.448;2023-02-26T06:36:44;10.60;99.90
12655;DHT22;6392;44.644;11.448;2023-02-26T06:39:12;10.60;99.90
12655;DHT22;6392;44.644;11.448;2023-02-26T06:41:41;10.40;99.90
12655;DHT22;6392;44.644;11.448;2023-02-26T06:44:09;10.20;99.90
12655;DHT22;6392;44.644;11.448;2023-02-26T06:46:36;10.00;99.90
12655;DHT22;6392;44.644;11.448;2023-02-26T06:49:03;9.80;99.90
12655;DHT22;6392;44.644;11.448;2023-02-26T06:51:30;9.70;99.90
12655;DHT22;6392;44.644;11.448;2023-02-26T06:53:57;9.60;99.90
12655;DHT22;6392;44.644;11.448;2023-02-26T06:56:24;9.60;99.90
12655;DHT22;6392;44.644;11.448;2023-02-26T06:58:53;9.50;99.90
12655;DHT22;6392;44.644;11.448;2023-02-26T07:01:20;9.50;99.90
12655;DHT22;6392;44.644;11.448;2023-02-26T07:03:47;9.50;99.90
12655;DHT22;6392;44.644;11.448;2023-02-26T07:06:14;9.40;99.90
12655;DHT22;6392;44.644;11.448;2023-02-26T07:08:42;9.40;99.90
12655;DHT22;6392;44.644;11.448;2023-02-26T07:11:09;9.40;99.90
12655;DHT22;6392;44.644;11.448;2023-02-26T07:13:36;9.40;99.90
12655;DHT22;6392;44.644;11.448;2023-02-26T07:16:05;9.50;99.90
12655;DHT22;6392;44.644;11.448;2023-02-26T07:18:32;9.80;99.90
12655;DHT22;6392;44.644;11.448;2023-02-26T07:21:00;9.80;99.90
12655;DHT22;6392;44.644;11.448;2023-02-26T07:23:27;9.70;99.90
12655;DHT22;6392;44.644;11.448;2023-02-26T07:25:54;9.60;99.90
12655;DHT22;6392;44.644;11.448;2023-02-26T07:28:22;9.50;99.90
12655;DHT22;6392;44.644;11.448;2023-02-26T07:30:49;9.50;99.90
12655;DHT22;6392;44.644;11.448;2023-02-26T07:33:17;9.60;99.90
12655;DHT22;6392;44.644;11.448;2023-02-26T07:35:44;9.60;99.90
12655;DHT22;6392;44.644;11.448;2023-02-26T07:38:11;9.80;99.90
12655;DHT22;6392;44.644;11.448;2023-02-26T07:40:38;9.90;99.90
12655;DHT22;6392;44.644;11.448;2023-02-26T07:43:05;9.80;99.90
12655;DHT22;6392;44.644;11.448;2023-02-26T07:45:32;9.70;99.90
12655;DHT22;6392;44.644;11.448;2023-02-26T07:47:59;9.60;99.90
12655;DHT22;6392;44.644;11.448;2023-02-26T07:50:28;9.50;99.90
12655;DHT22;6392;44.644;11.448;2023-02-26T07:52:55;9.70;99.90
12655;DHT22;6392;44.644;11.448;2023-02-26T07:55:22;9.70;99.90
12655;DHT22;6392;44.644;11.448;2023-02-26T07:57:49;10.00;99.90
12655;DHT22;6392;44.644;11.448;2023-02-26T08:00:17;10.40;99.90
12655;DHT22;6392;44.644;11.448;2023-02-26T08:02:44;10.70;99.90
12655;DHT22;6392;44.644;11.448;2023-02-26T08:05:12;11.10;99.90
12655;DHT22;6392;44.644;11.448;2023-02-26T08:07:40;11.00;99.90
12655;DHT22;6392;44.644;11.448;2023-02-26T08:10:08;10.70;99.90
12655;DHT22;6392;44.644;11.448;2023-02-26T08:12:36;10.90;99.90
12655;DHT22;6392;44.644;11.448;2023-02-26T08:15:04;10.70;99.90
12655;DHT22;6392;44.644;11.448;2023-02-26T08:17:31;10.40;99.90
12655;DHT22;6392;44.644;11.448;2023-02-26T08:19:58;10.10;99.90
12655;DHT22;6392;44.644;11.448;2023-02-26T08:22:25;9.80;99.90
12655;DHT22;6392;44.644;11.448;2023-02-26T08:24:53;9.70;99.90
12655;DHT22;6392;44.644;11.448;2023-02-26T08:27:20;9.80;99.90
12655;DHT22;6392;44.644;11.448;2023-02-26T08:29:47;10.00;99.90
12655;DHT22;6392;44.644;11.448;2023-02-26T08:32:16;9.90;99.90
12655;DHT22;6392;44.644;11.448;2023-02-26T08:34:44;9.70;99.90
12655;DHT22;6392;44.644;11.448;2023-02-26T08:37:11;9.70;99.90
12655;DHT22;6392;44.644;11.448;2023-02-26T08:39:39;9.80;99.90
12655;DHT22;6392;44.644;11.448;2023-02-26T08:42:08;9.80;99.90
12655;DHT22;6392;44.644;11.448;2023-02-26T08:44:36;9.70;99.90
12655;DHT22;6392;44.644;11.448;2023-02-26T08:47:03;9.90;99.90
12655;DHT22;6392;44.644;11.448;2023-02-26T08:49:30;10.30;99.90
12655;DHT22;6392;44.644;11.448;2023-02-26T08:51:57;10.90;99.90
12655;DHT22;6392;44.644;11.448;2023-02-26T08:54:24;11.10;99.90
12655;DHT22;6392;44.644;11.448;2023-02-26T08:56:52;11.10;99.90
12655;DHT22;6392;44.644;11.448;2023-02-26T08:59:22;10.80;99.90
12655;DHT22;6392;44.644;11.448;2023-02-26T09:01:49;10.50;99.90
12655;DHT22;6392;44.644;11.448;2023-02-26T09:04:17;10.40;99.90
12655;DHT22;6392;44.644;11.448;2023-02-26T09:06:44;10.40;99.90
12655;DHT22;6392;44.644;11.448;2023-02-26T09:09:11;10.20;99.90
12655;DHT22;6392;44.644;11.448;2023-02-26T09:11:39;9.90;99.90
12655;DHT22;6392;44.644;11.448;2023-02-26T09:14:06;9.80;99.90
12655;DHT22;6392;44.644;11.448;2023-02-26T09:16:34;9.70;99.90
12655;DHT22;6392;44.644;11.448;2023-02-26T09:19:02;9.90;99.90
12655;DHT22;6392;44.644;11.448;2023-02-26T09:21:29;10.10;99.90
12655;DHT22;6392;44.644;11.448;2023-02-26T09:23:56;10.20;99.90
12655;DHT22;6392;44.644;11.448;2023-02-26T09:26:24;10.50;99.90
12655;DHT22;6392;44.644;11.448;2023-02-26T09:28:51;10.70;99.90
12655;DHT22;6392;44.644;11.448;2023-02-26T09:31:18;11.40;99.90
12655;DHT22;6392;44.644;11.448;2023-02-26T09:33:46;12.20;99.90
12655;DHT22;6392;44.644;11.448;2023-02-26T09:36:14;12.00;99.90
12655;DHT22;6392;44.644;11.448;2023-02-26T09:38:41;11.50;99.90
12655;DHT22;6392;44.644;11.448;2023-02-26T09:41:15;11.00;99.90
12655;DHT22;6392;44.644;11.448;2023-02-26T09:46:43;11.20;99.90
12655;DHT22;6392;44.644;11.448;2023-02-26T09:49:22;11.80;99.90
12655;DHT22;6392;44.644;11.448;2023-02-26T09:51:54;12.30;99.90
12655;DHT22;6392;44.644;11.448;2023-02-26T09:54:25;12.30;99.90
12655;DHT22;6392;44.644;11.448;2023-02-26T09:56:57;11.70;99.90
12655;DHT22;6392;44.644;11.448;2023-02-26T09:59:28;11.60;99.90
12655;DHT22;6392;44.644;11.448;2023-02-26T10:01:59;11.80;99.90
12655;DHT22;6392;44.644;11.448;2023-02-26T10:04:43;12.10;99.90
12655;DHT22;6392;44.644;11.448;2023-02-26T10:07:20;12.20;99.90
12655;DHT22;6392;44.644;11.448;2023-02-26T10:10:10;12.50;99.90
12655;DHT22;6392;44.644;11.448;2023-02-26T10:12:42;12.50;99.90
12655;DHT22;6392;44.644;11.448;2023-02-26T10:15:13;12.00;99.90
12655;DHT22;6392;44.644;11.448;2023-02-26T10:17:52;12.20;99.90
12655;DHT22;6392;44.644;11.448;2023-02-26T10:20:26;12.10;99.90
12655;DHT22;6392;44.644;11.448;2023-02-26T10:22:59;12.60;99.90
12655;DHT22;6392;44.644;11.448;2023-02-26T10:25:32;13.20;99.90
12655;DHT22;6392;44.644;11.448;2023-02-26T10:28:04;13.70;99.90
12655;DHT22;6392;44.644;11.448;2023-02-26T10:30:36;13.50;99.90
12655;DHT22;6392;44.644;11.448;2023-02-26T10:33:12;13.00;99.90
12655;DHT22;6392;44.644;11.448;2023-02-26T10:35:44;13.40;99.90
12655;DHT22;6392;44.644;11.448;2023-02-26T10:38:17;14.00;99.90
12655;DHT22;6392;44.644;11.448;2023-02-26T10:40:49;14.60;99.90
12655;DHT22;6392;44.644;11.448;2023-02-26T10:43:20;14.80;99.90
12655;DHT22;6392;44.644;11.448;2023-02-26T10:45:59;14.60;99.90
12655;DHT22;6392;44.644;11.448;2023-02-26T10:48:42;14.70;99.90
12655;DHT22;6392;44.644;11.448;2023-02-26T10:51:14;15.00;99.90
12655;DHT22;6392;44.644;11.448;2023-02-26T10:53:44;15.10;99.90
12655;DHT22;6392;44.644;11.448;2023-02-26T10:56:15;14.90;99.90
12655;DHT22;6392;44.644;11.448;2023-02-26T10:58:44;14.90;99.90
12655;DHT22;6392;44.644;11.448;2023-02-26T11:01:15;15.10;99.90
12655;DHT22;6392;44.644;11.448;2023-02-26T11:03:45;15.20;99.90
12655;DHT22;6392;44.644;11.448;2023-02-26T11:06:19;15.00;99.90
12655;DHT22;6392;44.644;11.448;2023-02-26T11:08:49;14.50;99.90
12655;DHT22;6392;44.644;11.448;2023-02-26T11:11:41;14.00;99.90
12655;DHT22;6392;44.644;11.448;2023-02-26T11:14:12;13.40;99.90
12655;DHT22;6392;44.644;11.448;2023-02-26T11:16:44;13.50;99.90
12655;DHT22;6392;44.644;11.448;2023-02-26T11:19:15;14.10;99.90
12655;DHT22;6392;44.644;11.448;2023-02-26T11:21:46;14.50;99.90
12655;DHT22;6392;44.644;11.448;2023-02-26T11:24:27;14.70;99.90
12655;DHT22;6392;44.644;11.448;2023-02-26T11:26:57;14.80;99.90
12655;DHT22;6392;44.644;11.448;2023-02-26T11:29:34;14.80;99.90
12655;DHT22;6392;44.644;11.448;2023-02-26T11:32:03;14.90;99.90
12655;DHT22;6392;44.644;11.448;2023-02-26T11:34:31;15.00;99.90
12655;DHT22;6392;44.644;11.448;2023-02-26T11:37:00;14.70;99.90
12655;DHT22;6392;44.644;11.448;2023-02-26T11:39:32;14.80;99.90
12655;DHT22;6392;44.644;11.448;2023-02-26T11:42:00;14.80;99.90
12655;DHT22;6392;44.644;11.448;2023-02-26T11:44:34;15.10;99.90
12655;DHT22;6392;44.644;11.448;2023-02-26T11:47:05;15.30;99.90
12655;DHT22;6392;44.644;11.448;2023-02-26T11:49:33;15.40;99.90
12655;DHT22;6392;44.644;11.448;2023-02-26T11:52:15;15.50;99.90
12655;DHT22;6392;44.644;11.448;2023-02-26T11:54:44;15.40;99.90
12655;DHT22;6392;44.644;11.448;2023-02-26T11:57:17;15.40;99.90
12655;DHT22;6392;44.644;11.448;2023-02-26T11:59:47;15.30;99.90
12655;DHT22;6392;44.644;11.448;2023-02-26T12:02:18;15.00;99.90
12655;DHT22;6392;44.644;11.448;2023-02-26T12:04:48;14.50;99.90
12655;DHT22;6392;44.644;11.448;2023-02-26T12:07:20;14.30;99.90
12655;DHT22;6392;44.644;11.448;2023-02-26T12:09:48;14.20;99.90
12655;DHT22;6392;44.644;11.448;2023-02-26T12:15:30;14.50;99.90
12655;DHT22;6392;44.644;11.448;2023-02-26T12:18:18;14.60;99.90
12655;DHT22;6392;44.644;11.448;2023-02-26T12:20:54;14.00;99.90
12655;DHT22;6392;44.644;11.448;2023-02-26T12:23:59;13.50;99.90
12655;DHT22;6392;44.644;11.448;2023-02-26T12:26:32;13.50;99.90
12655;DHT22;6392;44.644;11.448;2023-02-26T12:32:21;13.50;99.90
12655;DHT22;6392;44.644;11.448;2023-02-26T12:35:02;13.40;99.90
12655;DHT22;6392;44.644;11.448;2023-02-26T12:37:41;13.60;99.90
12655;DHT22;6392;44.644;11.448;2023-02-26T12:40:26;13.60;99.90
12655;DHT22;6392;44.644;11.448;2023-02-26T12:43:03;13.70;99.90
12655;DHT22;6392;44.644;11.448;2023-02-26T12:45:41;13.70;99.90
12655;DHT22;6392;44.644;11.448;2023-02-26T12:48:34;14.00;99.90
12655;DHT22;6392;44.644;11.448;2023-02-26T12:51:10;14.40;99.90
12655;DHT22;6392;44.644;11.448;2023-02-26T12:53:55;14.30;99.90
12655;DHT22;6392;44.644;11.448;2023-02-26T12:56:54;13.90;99.90
12655;DHT22;6392;44.644;11.448;2023-02-26T12:59:42;13.90;99.90
12655;DHT22;6392;44.644;11.448;2023-02-26T13:02:43;14.20;99.90
12655;DHT22;6392;44.644;11.448;2023-02-26T13:05:26;14.40;99.90
12655;DHT22;6392;44.644;11.448;2023-02-26T13:08:14;14.50;99.90
12655;DHT22;6392;44.644;11.448;2023-02-26T13:10:56;14.30;99.90
12655;DHT22;6392;44.644;11.448;2023-02-26T13:13:38;14.20;99.90
12655;DHT22;6392;44.644;11.448;2023-02-26T13:16:28;14.20;99.90
12655;DHT22;6392;44.644;11.448;2023-02-26T13:19:02;14.10;99.90
12655;DHT22;6392;44.644;11.448;2023-02-26T13:21:35;13.30;99.90
12655;DHT22;6392;44.644;11.448;2023-02-26T13:24:06;12.60;99.90
12655;DHT22;6392;44.644;11.448;2023-02-26T13:26:36;12.40;99.90
12655;DHT22;6392;44.644;11.448;2023-02-26T13:29:14;12.50;99.90
12655;DHT22;6392;44.644;11.448;2023-02-26T13:31:46;12.70;99.90
12655;DHT22;6392;44.644;11.448;2023-02-26T13:34:19;12.90;99.90
12655;DHT22;6392;44.644;11.448;2023-02-26T13:36:49;12.40;99.90
12655;DHT22;6392;44.644;11.448;2023-02-26T13:39:35;12.20;99.90
12655;DHT22;6392;44.644;11.448;2023-02-26T13:42:13;11.90;99.90
12655;DHT22;6392;44.644;11.448;2023-02-26T13:44:54;11.60;99.90
12655;DHT22;6392;44.644;11.448;2023-02-26T13:47:37;11.20;99.90
12655;DHT22;6392;44.644;11.448;2023-02-26T13:50:23;11.10;99.90
12655;DHT22;6392;44.644;11.448;2023-02-26T13:52:55;10.70;99.90
12655;DHT22;6392;44.644;11.448;2023-02-26T13:55:44;10.30;99.90
12655;DHT22;6392;44.644;11.448;2023-02-26T13:58:24;9.90;99.90
12655;DHT22;6392;44.644;11.448;2023-02-26T14:01:03;9.60;99.90
12655;DHT22;6392;44.644;11.448;2023-02-26T14:03:34;9.30;99.90
12655;DHT22;6392;44.644;11.448;2023-02-26T14:09:42;9.30;99.90
12655;DHT22;6392;44.644;11.448;2023-02-26T14:12:31;9.40;99.90
12655;DHT22;6392;44.644;11.448;2023-02-26T14:18:25;8.90;99.90
12655;DHT22;6392;44.644;11.448;2023-02-26T14:21:30;8.60;99.90
12655;DHT22;6392;44.644;11.448;2023-02-26T14:24:00;8.50;99.90
12655;DHT22;6392;44.644;11.448;2023-02-26T14:26:32;8.40;99.90
12655;DHT22;6392;44.644;11.448;2023-02-26T14:29:12;8.30;99.90
12655;DHT22;6392;44.644;11.448;2023-02-26T14:34:46;8.40;99.90
12655;DHT22;6392;44.644;11.448;2023-02-26T14:37:18;8.40;99.90
12655;DHT22;6392;44.644;11.448;2023-02-26T14:39:48;8.40;99.90
12655;DHT22;6392;44.644;11.448;2023-02-26T14:42:21;8.30;99.90
12655;DHT22;6392;44.644;11.448;2023-02-26T14:44:53;8.30;99.90
12655;DHT22;6392;44.644;11.448;2023-02-26T14:47:23;8.20;99.90
12655;DHT22;6392;44.644;11.448;2023-02-26T14:49:52;8.20;99.90
12655;DHT22;6392;44.644;11.448;2023-02-26T14:55:36;8.20;99.90
12655;DHT22;6392;44.644;11.448;2023-02-26T15:01:29;8.20;99.90
12655;DHT22;6392;44.644;11.448;2023-02-26T15:07:08;8.00;99.90
12655;DHT22;6392;44.644;11.448;2023-02-26T15:09:46;8.00;99.90
12655;DHT22;6392;44.644;11.448;2023-02-26T15:12:31;7.80;99.90
12655;DHT22;6392;44.644;11.448;2023-02-26T15:18:13;7.80;99.90
12655;DHT22;6392;44.644;11.448;2023-02-26T15:20:52;7.80;99.90
12655;DHT22;6392;44.644;11.448;2023-02-26T15:23:37;7.70;99.90
12655;DHT22;6392;44.644;11.448;2023-02-26T15:26:18;7.70;99.90
12655;DHT22;6392;44.644;11.448;2023-02-26T15:28:46;7.90;99.90
12655;DHT22;6392;44.644;11.448;2023-02-26T15:31:14;7.80;99.90
12655;DHT22;6392;44.644;11.448;2023-02-26T15:33:41;7.80;99.90
12655;DHT22;6392;44.644;11.448;2023-02-26T15:36:13;7.70;99.90
12655;DHT22;6392;44.644;11.448;2023-02-26T15:38:46;7.70;99.90
12655;DHT22;6392;44.644;11.448;2023-02-26T15:41:13;7.60;99.90
12655;DHT22;6392;44.644;11.448;2023-02-26T15:43:47;7.60;99.90
12655;DHT22;6392;44.644;11.448;2023-02-26T15:46:15;7.60;99.90
12655;DHT22;6392;44.644;11.448;2023-02-26T15:48:42;7.50;99.90
12655;DHT22;6392;44.644;11.448;2023-02-26T15:51:12;7.50;99.90
12655;DHT22;6392;44.644;11.448;2023-02-26T15:53:42;7.50;99.90
12655;DHT22;6392;44.644;11.448;2023-02-26T15:56:14;7.50;99.90
12655;DHT22;6392;44.644;11.448;2023-02-26T15:58:47;7.50;99.90
12655;DHT22;6392;44.644;11.448;2023-02-26T16:01:18;7.50;99.90
12655;DHT22;6392;44.644;11.448;2023-02-26T16:03:46;7.60;99.90
12655;DHT22;6392;44.644;11.448;2023-02-26T16:06:18;7.80;99.90
12655;DHT22;6392;44.644;11.448;2023-02-26T16:08:45;7.80;99.90
12655;DHT22;6392;44.644;11.448;2023-02-26T16:11:15;7.70;99.90
12655;DHT22;6392;44.644;11.448;2023-02-26T16:13:43;7.80;99.90
12655;DHT22;6392;44.644;11.448;2023-02-26T16:16:14;8.10;99.90
12655;DHT22;6392;44.644;11.448;2023-02-26T16:18:43;8.00;99.90
12655;DHT22;6392;44.644;11.448;2023-02-26T16:21:26;8.00;99.90
12655;DHT22;6392;44.644;11.448;2023-02-26T16:23:56;7.90;99.90
12655;DHT22;6392;44.644;11.448;2023-02-26T16:26:30;7.70;99.90
12655;DHT22;6392;44.644;11.448;2023-02-26T16:29:00;7.70;99.90
12655;DHT22;6392;44.644;11.448;2023-02-26T16:31:29;7.70;99.90
12655;DHT22;6392;44.644;11.448;2023-02-26T16:34:00;7.60;99.90